Terminal Aerodrome Forecast
Issued by NWS Central Illinois

Home | Current Version | Previous Version | Text Only | Print | Product List | Glossary On
Versions: 1 2 3 4 5 6 7 8 9 10 11 12 13 14 15 16 17
000
FTUS43 KILX 261130
TAFPIA
TAF
KPIA 261130Z 2612/2712 16005KT P6SM BKN250
     FM261900 18006KT P6SM SCT025 BKN060
     FM270000 15004KT P6SM VCTS SCT050CB BKN250
     FM270300 VRB03KT 6SM TSRA SCT025 OVC050CB
     FM270800 VRB03KT 4SM SHRA VCTS SCT015 OVC025CB=

USA.gov is the U.S. government's official web portal to all federal, state and local government web resources and services.